sensor_id;sensor_type;location;lat;lon;timestamp;temperature;humidity
12520;DHT22;6325;49.540;8.364;2023-04-29T00:00:13;13.80;99.90
12520;DHT22;6325;49.540;8.364;2023-04-29T00:02:40;14.40;99.90
12520;DHT22;6325;49.540;8.364;2023-04-29T00:05:08;13.90;99.90
12520;DHT22;6325;49.540;8.364;2023-04-29T00:07:35;13.80;99.90
12520;DHT22;6325;49.540;8.364;2023-04-29T00:10:02;13.90;99.90
12520;DHT22;6325;49.540;8.364;2023-04-29T00:12:29;13.70;99.90
12520;DHT22;6325;49.540;8.364;2023-04-29T00:14:57;13.70;99.90
12520;DHT22;6325;49.540;8.364;2023-04-29T00:17:25;13.30;99.90
12520;DHT22;6325;49.540;8.364;2023-04-29T00:19:51;13.70;99.90
12520;DHT22;6325;49.540;8.364;2023-04-29T00:22:20;13.60;99.90
12520;DHT22;6325;49.540;8.364;2023-04-29T00:24:47;13.60;99.90
12520;DHT22;6325;49.540;8.364;2023-04-29T00:27:14;13.90;99.90
12520;DHT22;6325;49.540;8.364;2023-04-29T00:29:42;13.20;99.90
12520;DHT22;6325;49.540;8.364;2023-04-29T00:32:09;13.60;99.90
12520;DHT22;6325;49.540;8.364;2023-04-29T00:34:35;13.90;99.90
12520;DHT22;6325;49.540;8.364;2023-04-29T00:37:02;13.60;99.90
12520;DHT22;6325;49.540;8.364;2023-04-29T00:39:31;13.10;99.90
12520;DHT22;6325;49.540;8.364;2023-04-29T00:41:58;12.80;99.90
12520;DHT22;6325;49.540;8.364;2023-04-29T00:44:25;13.20;99.90
12520;DHT22;6325;49.540;8.364;2023-04-29T00:46:52;13.40;99.90
12520;DHT22;6325;49.540;8.364;2023-04-29T00:49:19;13.20;99.90
12520;DHT22;6325;49.540;8.364;2023-04-29T00:51:47;13.20;99.90
12520;DHT22;6325;49.540;8.364;2023-04-29T00:54:14;13.30;99.90
12520;DHT22;6325;49.540;8.364;2023-04-29T00:56:44;13.10;99.90
12520;DHT22;6325;49.540;8.364;2023-04-29T00:59:11;13.00;99.90
12520;DHT22;6325;49.540;8.364;2023-04-29T01:01:40;13.20;99.90
12520;DHT22;6325;49.540;8.364;2023-04-29T01:04:07;13.00;99.90
12520;DHT22;6325;49.540;8.364;2023-04-29T01:06:44;12.40;99.90
12520;DHT22;6325;49.540;8.364;2023-04-29T01:09:22;13.20;99.90
12520;DHT22;6325;49.540;8.364;2023-04-29T01:12:02;13.00;99.90
12520;DHT22;6325;49.540;8.364;2023-04-29T01:14:32;13.20;99.90
12520;DHT22;6325;49.540;8.364;2023-04-29T01:17:05;12.30;99.90
12520;DHT22;6325;49.540;8.364;2023-04-29T01:19:39;12.70;99.90
12520;DHT22;6325;49.540;8.364;2023-04-29T01:22:10;12.60;99.90
12520;DHT22;6325;49.540;8.364;2023-04-29T01:24:38;12.70;99.90
12520;DHT22;6325;49.540;8.364;2023-04-29T01:27:11;12.60;99.90
12520;DHT22;6325;49.540;8.364;2023-04-29T01:29:44;12.60;99.90
12520;DHT22;6325;49.540;8.364;2023-04-29T01:32:17;12.40;99.90
12520;DHT22;6325;49.540;8.364;2023-04-29T01:34:50;13.20;99.90
12520;DHT22;6325;49.540;8.364;2023-04-29T01:37:21;12.50;99.90
12520;DHT22;6325;49.540;8.364;2023-04-29T01:39:59;12.60;99.90
12520;DHT22;6325;49.540;8.364;2023-04-29T01:42:38;12.70;99.90
12520;DHT22;6325;49.540;8.364;2023-04-29T01:45:07;12.70;99.90
12520;DHT22;6325;49.540;8.364;2023-04-29T01:47:36;12.70;99.90
12520;DHT22;6325;49.540;8.364;2023-04-29T01:50:05;12.40;99.90
12520;DHT22;6325;49.540;8.364;2023-04-29T01:52:32;12.70;99.90
12520;DHT22;6325;49.540;8.364;2023-04-29T01:55:00;12.70;99.90
12520;DHT22;6325;49.540;8.364;2023-04-29T01:57:28;12.60;99.90
12520;DHT22;6325;49.540;8.364;2023-04-29T01:59:54;13.20;99.90
12520;DHT22;6325;49.540;8.364;2023-04-29T02:02:21;13.20;99.90
12520;DHT22;6325;49.540;8.364;2023-04-29T02:04:49;13.30;99.90
12520;DHT22;6325;49.540;8.364;2023-04-29T02:07:16;13.00;99.90
12520;DHT22;6325;49.540;8.364;2023-04-29T02:09:43;13.20;99.90
12520;DHT22;6325;49.540;8.364;2023-04-29T02:12:11;12.80;99.90
12520;DHT22;6325;49.540;8.364;2023-04-29T02:14:38;13.00;99.90
12520;DHT22;6325;49.540;8.364;2023-04-29T02:17:06;13.30;99.90
12520;DHT22;6325;49.540;8.364;2023-04-29T02:19:33;12.50;99.90
12520;DHT22;6325;49.540;8.364;2023-04-29T02:22:00;13.20;99.90
12520;DHT22;6325;49.540;8.364;2023-04-29T02:24:27;12.80;99.90
12520;DHT22;6325;49.540;8.364;2023-04-29T02:26:53;12.80;99.90
12520;DHT22;6325;49.540;8.364;2023-04-29T02:29:21;13.40;99.90
12520;DHT22;6325;49.540;8.364;2023-04-29T02:31:50;12.80;99.90
12520;DHT22;6325;49.540;8.364;2023-04-29T02:34:18;13.00;99.90
12520;DHT22;6325;49.540;8.364;2023-04-29T02:36:45;12.70;99.90
12520;DHT22;6325;49.540;8.364;2023-04-29T02:39:12;13.00;99.90
12520;DHT22;6325;49.540;8.364;2023-04-29T02:41:39;12.90;99.90
12520;DHT22;6325;49.540;8.364;2023-04-29T02:44:07;12.60;99.90
12520;DHT22;6325;49.540;8.364;2023-04-29T02:46:35;12.50;99.90
12520;DHT22;6325;49.540;8.364;2023-04-29T02:49:04;12.50;99.90
12520;DHT22;6325;49.540;8.364;2023-04-29T02:51:31;12.40;99.90
12520;DHT22;6325;49.540;8.364;2023-04-29T02:53:58;12.80;99.90
12520;DHT22;6325;49.540;8.364;2023-04-29T02:56:25;12.90;99.90
12520;DHT22;6325;49.540;8.364;2023-04-29T02:58:54;12.20;99.90
12520;DHT22;6325;49.540;8.364;2023-04-29T03:01:21;12.30;99.90
12520;DHT22;6325;49.540;8.364;2023-04-29T03:03:51;12.50;99.90
12520;DHT22;6325;49.540;8.364;2023-04-29T03:06:19;12.40;99.90
12520;DHT22;6325;49.540;8.364;2023-04-29T03:08:45;12.40;99.90
12520;DHT22;6325;49.540;8.364;2023-04-29T03:11:12;12.50;99.90
12520;DHT22;6325;49.540;8.364;2023-04-29T03:13:39;12.90;99.90
12520;DHT22;6325;49.540;8.364;2023-04-29T03:16:06;12.60;99.90
12520;DHT22;6325;49.540;8.364;2023-04-29T03:18:33;12.60;99.90
12520;DHT22;6325;49.540;8.364;2023-04-29T03:21:01;12.60;99.90
12520;DHT22;6325;49.540;8.364;2023-04-29T03:23:29;12.60;99.90
12520;DHT22;6325;49.540;8.364;2023-04-29T03:25:55;12.60;99.90
12520;DHT22;6325;49.540;8.364;2023-04-29T03:28:23;12.70;99.90
12520;DHT22;6325;49.540;8.364;2023-04-29T03:30:49;12.50;99.90
12520;DHT22;6325;49.540;8.364;2023-04-29T03:33:16;12.40;99.90
12520;DHT22;6325;49.540;8.364;2023-04-29T03:35:43;12.00;99.90
12520;DHT22;6325;49.540;8.364;2023-04-29T03:38:11;12.30;99.90
12520;DHT22;6325;49.540;8.364;2023-04-29T03:40:38;11.70;99.90
12520;DHT22;6325;49.540;8.364;2023-04-29T03:43:05;12.20;99.90
12520;DHT22;6325;49.540;8.364;2023-04-29T03:45:33;12.20;99.90
12520;DHT22;6325;49.540;8.364;2023-04-29T03:48:00;12.20;99.90
12520;DHT22;6325;49.540;8.364;2023-04-29T03:50:28;12.60;99.90
12520;DHT22;6325;49.540;8.364;2023-04-29T03:52:55;12.00;99.90
12520;DHT22;6325;49.540;8.364;2023-04-29T03:55:23;12.50;99.90
12520;DHT22;6325;49.540;8.364;2023-04-29T03:57:51;12.30;99.90
12520;DHT22;6325;49.540;8.364;2023-04-29T04:00:18;12.00;99.90
12520;DHT22;6325;49.540;8.364;2023-04-29T04:02:46;12.30;99.90
12520;DHT22;6325;49.540;8.364;2023-04-29T04:05:12;12.10;99.90
12520;DHT22;6325;49.540;8.364;2023-04-29T04:07:39;11.80;99.90
12520;DHT22;6325;49.540;8.364;2023-04-29T04:10:06;12.40;99.90
12520;DHT22;6325;49.540;8.364;2023-04-29T04:12:35;12.10;99.90
12520;DHT22;6325;49.540;8.364;2023-04-29T04:15:01;11.90;99.90
12520;DHT22;6325;49.540;8.364;2023-04-29T04:17:28;12.10;99.90
12520;DHT22;6325;49.540;8.364;2023-04-29T04:19:55;11.80;99.90
12520;DHT22;6325;49.540;8.364;2023-04-29T04:22:22;12.50;99.90
12520;DHT22;6325;49.540;8.364;2023-04-29T04:24:53;11.80;99.90
12520;DHT22;6325;49.540;8.364;2023-04-29T04:27:20;12.30;99.90
12520;DHT22;6325;49.540;8.364;2023-04-29T04:29:52;12.70;99.90
12520;DHT22;6325;49.540;8.364;2023-04-29T04:32:19;12.40;99.90
12520;DHT22;6325;49.540;8.364;2023-04-29T04:34:46;12.40;99.90
12520;DHT22;6325;49.540;8.364;2023-04-29T04:37:13;13.00;99.90
12520;DHT22;6325;49.540;8.364;2023-04-29T04:39:39;12.90;99.90
12520;DHT22;6325;49.540;8.364;2023-04-29T04:42:06;12.30;99.90
12520;DHT22;6325;49.540;8.364;2023-04-29T04:44:35;12.30;99.90
12520;DHT22;6325;49.540;8.364;2023-04-29T04:47:04;12.20;99.90
12520;DHT22;6325;49.540;8.364;2023-04-29T04:49:31;12.60;99.90
12520;DHT22;6325;49.540;8.364;2023-04-29T04:51:58;12.60;99.90
12520;DHT22;6325;49.540;8.364;2023-04-29T04:54:25;12.80;99.90
12520;DHT22;6325;49.540;8.364;2023-04-29T04:56:51;12.30;99.90
12520;DHT22;6325;49.540;8.364;2023-04-29T04:59:18;12.60;99.90
12520;DHT22;6325;49.540;8.364;2023-04-29T05:01:45;12.70;99.90
12520;DHT22;6325;49.540;8.364;2023-04-29T05:04:13;12.80;99.90
12520;DHT22;6325;49.540;8.364;2023-04-29T05:06:40;12.50;99.90
12520;DHT22;6325;49.540;8.364;2023-04-29T05:09:08;12.80;99.90
12520;DHT22;6325;49.540;8.364;2023-04-29T05:11:36;13.40;99.90
12520;DHT22;6325;49.540;8.364;2023-04-29T05:14:02;12.90;99.90
12520;DHT22;6325;49.540;8.364;2023-04-29T05:16:29;13.00;99.90
12520;DHT22;6325;49.540;8.364;2023-04-29T05:18:56;13.10;99.90
12520;DHT22;6325;49.540;8.364;2023-04-29T05:21:24;13.60;99.90
12520;DHT22;6325;49.540;8.364;2023-04-29T05:23:51;13.10;99.90
12520;DHT22;6325;49.540;8.364;2023-04-29T05:26:18;12.90;99.90
12520;DHT22;6325;49.540;8.364;2023-04-29T05:28:44;13.00;99.90
12520;DHT22;6325;49.540;8.364;2023-04-29T05:31:11;13.10;99.90
12520;DHT22;6325;49.540;8.364;2023-04-29T05:33:38;13.20;99.90
12520;DHT22;6325;49.540;8.364;2023-04-29T05:36:05;12.90;99.90
12520;DHT22;6325;49.540;8.364;2023-04-29T05:38:33;12.90;99.90
12520;DHT22;6325;49.540;8.364;2023-04-29T05:41:00;13.20;99.90
12520;DHT22;6325;49.540;8.364;2023-04-29T05:43:28;13.40;99.90
12520;DHT22;6325;49.540;8.364;2023-04-29T05:45:55;13.30;99.90
12520;DHT22;6325;49.540;8.364;2023-04-29T05:48:22;13.60;99.90
12520;DHT22;6325;49.540;8.364;2023-04-29T05:50:49;13.70;99.90
12520;DHT22;6325;49.540;8.364;2023-04-29T05:53:16;13.80;99.90
12520;DHT22;6325;49.540;8.364;2023-04-29T05:55:45;13.20;99.90
12520;DHT22;6325;49.540;8.364;2023-04-29T05:58:12;13.40;99.90
12520;DHT22;6325;49.540;8.364;2023-04-29T06:00:39;14.10;99.90
12520;DHT22;6325;49.540;8.364;2023-04-29T06:03:08;13.70;99.90
12520;DHT22;6325;49.540;8.364;2023-04-29T06:05:35;14.10;99.90
12520;DHT22;6325;49.540;8.364;2023-04-29T06:08:03;13.70;99.90
12520;DHT22;6325;49.540;8.364;2023-04-29T06:10:30;13.80;99.90
12520;DHT22;6325;49.540;8.364;2023-04-29T06:12:59;13.70;99.90
12520;DHT22;6325;49.540;8.364;2023-04-29T06:15:26;13.90;99.90
12520;DHT22;6325;49.540;8.364;2023-04-29T06:17:52;13.70;99.90
12520;DHT22;6325;49.540;8.364;2023-04-29T06:20:19;13.40;99.90
12520;DHT22;6325;49.540;8.364;2023-04-29T06:22:46;14.30;99.90
12520;DHT22;6325;49.540;8.364;2023-04-29T06:25:13;14.40;99.90
12520;DHT22;6325;49.540;8.364;2023-04-29T06:27:40;14.30;99.90
12520;DHT22;6325;49.540;8.364;2023-04-29T06:30:09;14.60;99.90
12520;DHT22;6325;49.540;8.364;2023-04-29T06:32:37;14.30;99.90
12520;DHT22;6325;49.540;8.364;2023-04-29T06:35:04;14.30;99.90
12520;DHT22;6325;49.540;8.364;2023-04-29T06:37:31;14.30;99.90
12520;DHT22;6325;49.540;8.364;2023-04-29T06:39:58;14.80;99.90
12520;DHT22;6325;49.540;8.364;2023-04-29T06:42:24;14.40;99.90
12520;DHT22;6325;49.540;8.364;2023-04-29T06:44:51;14.30;99.90
12520;DHT22;6325;49.540;8.364;2023-04-29T06:47:19;14.30;99.90
12520;DHT22;6325;49.540;8.364;2023-04-29T06:49:47;14.10;99.90
12520;DHT22;6325;49.540;8.364;2023-04-29T06:52:14;14.00;99.90
12520;DHT22;6325;49.540;8.364;2023-04-29T06:54:40;14.00;99.90
12520;DHT22;6325;49.540;8.364;2023-04-29T06:57:07;13.30;99.90
12520;DHT22;6325;49.540;8.364;2023-04-29T06:59:34;13.80;99.90
12520;DHT22;6325;49.540;8.364;2023-04-29T07:02:01;14.10;99.90
12520;DHT22;6325;49.540;8.364;2023-04-29T07:04:29;13.90;99.90
12520;DHT22;6325;49.540;8.364;2023-04-29T07:06:56;13.70;99.90
12520;DHT22;6325;49.540;8.364;2023-04-29T07:09:24;14.00;99.90
12520;DHT22;6325;49.540;8.364;2023-04-29T07:11:52;14.00;99.90
12520;DHT22;6325;49.540;8.364;2023-04-29T07:14:19;13.30;99.90
12520;DHT22;6325;49.540;8.364;2023-04-29T07:16:49;13.60;99.90
12520;DHT22;6325;49.540;8.364;2023-04-29T07:19:18;13.70;99.90
12520;DHT22;6325;49.540;8.364;2023-04-29T07:21:46;13.30;99.90
12520;DHT22;6325;49.540;8.364;2023-04-29T07:24:13;13.70;99.90
12520;DHT22;6325;49.540;8.364;2023-04-29T07:26:42;13.80;99.90
12520;DHT22;6325;49.540;8.364;2023-04-29T07:29:08;13.90;99.90
12520;DHT22;6325;49.540;8.364;2023-04-29T07:31:38;13.80;99.90
12520;DHT22;6325;49.540;8.364;2023-04-29T07:34:04;13.50;99.90
12520;DHT22;6325;49.540;8.364;2023-04-29T07:36:31;13.80;99.90
12520;DHT22;6325;49.540;8.364;2023-04-29T07:38:59;13.50;99.90
12520;DHT22;6325;49.540;8.364;2023-04-29T07:41:26;13.60;99.90
12520;DHT22;6325;49.540;8.364;2023-04-29T07:43:54;13.90;99.90
12520;DHT22;6325;49.540;8.364;2023-04-29T07:46:21;14.00;99.90
12520;DHT22;6325;49.540;8.364;2023-04-29T07:48:48;13.80;99.90
12520;DHT22;6325;49.540;8.364;2023-04-29T07:51:15;14.50;99.90
12520;DHT22;6325;49.540;8.364;2023-04-29T07:53:42;14.10;99.90
12520;DHT22;6325;49.540;8.364;2023-04-29T07:56:10;14.10;99.90
12520;DHT22;6325;49.540;8.364;2023-04-29T07:58:37;14.10;99.90
12520;DHT22;6325;49.540;8.364;2023-04-29T08:01:05;13.60;99.90
12520;DHT22;6325;49.540;8.364;2023-04-29T08:03:32;14.50;99.90
12520;DHT22;6325;49.540;8.364;2023-04-29T08:06:00;14.50;99.90
12520;DHT22;6325;49.540;8.364;2023-04-29T08:08:28;14.00;99.90
12520;DHT22;6325;49.540;8.364;2023-04-29T08:10:54;14.20;99.90
12520;DHT22;6325;49.540;8.364;2023-04-29T08:13:23;13.70;99.90
12520;DHT22;6325;49.540;8.364;2023-04-29T08:15:50;14.20;99.90
12520;DHT22;6325;49.540;8.364;2023-04-29T08:18:17;14.10;99.90
12520;DHT22;6325;49.540;8.364;2023-04-29T08:20:44;14.00;99.90
12520;DHT22;6325;49.540;8.364;2023-04-29T08:23:10;14.60;99.90
12520;DHT22;6325;49.540;8.364;2023-04-29T08:25:40;14.10;99.90
12520;DHT22;6325;49.540;8.364;2023-04-29T08:28:07;14.10;99.90
12520;DHT22;6325;49.540;8.364;2023-04-29T08:30:38;14.00;99.90
12520;DHT22;6325;49.540;8.364;2023-04-29T08:33:05;13.50;99.90
12520;DHT22;6325;49.540;8.364;2023-04-29T08:35:32;14.10;99.90
12520;DHT22;6325;49.540;8.364;2023-04-29T08:37:59;14.10;99.90
12520;DHT22;6325;49.540;8.364;2023-04-29T08:40:26;14.00;99.90
12520;DHT22;6325;49.540;8.364;2023-04-29T08:42:54;14.80;99.90
12520;DHT22;6325;49.540;8.364;2023-04-29T08:45:23;14.10;99.90
12520;DHT22;6325;49.540;8.364;2023-04-29T08:47:54;14.50;99.90
12520;DHT22;6325;49.540;8.364;2023-04-29T08:50:23;14.10;99.90
12520;DHT22;6325;49.540;8.364;2023-04-29T08:52:50;14.40;99.90
12520;DHT22;6325;49.540;8.364;2023-04-29T08:55:17;13.50;99.90
12520;DHT22;6325;49.540;8.364;2023-04-29T08:57:44;14.20;99.90
12520;DHT22;6325;49.540;8.364;2023-04-29T09:00:13;14.50;99.90
12520;DHT22;6325;49.540;8.364;2023-04-29T09:02:44;14.20;99.90
12520;DHT22;6325;49.540;8.364;2023-04-29T09:05:12;14.20;99.90
12520;DHT22;6325;49.540;8.364;2023-04-29T09:07:40;14.20;99.90
12520;DHT22;6325;49.540;8.364;2023-04-29T09:10:08;13.80;99.90
12520;DHT22;6325;49.540;8.364;2023-04-29T09:12:36;14.60;99.90
12520;DHT22;6325;49.540;8.364;2023-04-29T09:15:03;13.90;99.90
12520;DHT22;6325;49.540;8.364;2023-04-29T09:17:41;14.90;99.90
12520;DHT22;6325;49.540;8.364;2023-04-29T09:20:28;14.60;99.90
12520;DHT22;6325;49.540;8.364;2023-04-29T09:22:57;14.60;99.90
12520;DHT22;6325;49.540;8.364;2023-04-29T09:25:24;15.30;99.90
12520;DHT22;6325;49.540;8.364;2023-04-29T09:27:52;14.60;99.90
12520;DHT22;6325;49.540;8.364;2023-04-29T09:30:19;14.50;99.90
12520;DHT22;6325;49.540;8.364;2023-04-29T09:32:54;15.00;99.90
12520;DHT22;6325;49.540;8.364;2023-04-29T09:35:30;15.00;99.90
12520;DHT22;6325;49.540;8.364;2023-04-29T09:38:08;14.70;99.90
12520;DHT22;6325;49.540;8.364;2023-04-29T09:40:35;14.80;99.90
12520;DHT22;6325;49.540;8.364;2023-04-29T09:43:02;14.40;99.90
12520;DHT22;6325;49.540;8.364;2023-04-29T09:45:33;15.00;99.90
12520;DHT22;6325;49.540;8.364;2023-04-29T09:48:01;14.40;99.90
12520;DHT22;6325;49.540;8.364;2023-04-29T09:50:31;14.30;99.90
12520;DHT22;6325;49.540;8.364;2023-04-29T09:52:58;14.70;99.90
12520;DHT22;6325;49.540;8.364;2023-04-29T09:55:25;14.90;99.90
12520;DHT22;6325;49.540;8.364;2023-04-29T09:57:52;15.40;99.90
12520;DHT22;6325;49.540;8.364;2023-04-29T10:00:19;14.70;99.90
12520;DHT22;6325;49.540;8.364;2023-04-29T10:02:47;14.40;99.90
12520;DHT22;6325;49.540;8.364;2023-04-29T10:05:15;15.20;99.90
12520;DHT22;6325;49.540;8.364;2023-04-29T10:07:45;15.10;99.90
12520;DHT22;6325;49.540;8.364;2023-04-29T10:10:12;14.70;99.90
12520;DHT22;6325;49.540;8.364;2023-04-29T10:12:40;15.10;99.90
12520;DHT22;6325;49.540;8.364;2023-04-29T10:15:17;15.40;99.90
12520;DHT22;6325;49.540;8.364;2023-04-29T10:17:48;15.30;99.90
12520;DHT22;6325;49.540;8.364;2023-04-29T10:20:21;15.30;99.90
12520;DHT22;6325;49.540;8.364;2023-04-29T10:22:50;15.50;99.90
12520;DHT22;6325;49.540;8.364;2023-04-29T10:25:19;15.60;99.90
12520;DHT22;6325;49.540;8.364;2023-04-29T10:27:47;16.30;99.90
12520;DHT22;6325;49.540;8.364;2023-04-29T10:30:16;16.20;99.90
12520;DHT22;6325;49.540;8.364;2023-04-29T10:32:43;16.20;99.90
12520;DHT22;6325;49.540;8.364;2023-04-29T10:35:11;16.00;99.90
12520;DHT22;6325;49.540;8.364;2023-04-29T10:37:39;15.70;99.90
12520;DHT22;6325;49.540;8.364;2023-04-29T10:40:11;16.10;99.90
12520;DHT22;6325;49.540;8.364;2023-04-29T10:42:43;16.10;99.90
12520;DHT22;6325;49.540;8.364;2023-04-29T10:45:18;16.10;99.90
12520;DHT22;6325;49.540;8.364;2023-04-29T10:48:12;16.20;99.90
12520;DHT22;6325;49.540;8.364;2023-04-29T10:53:23;16.90;99.90
12520;DHT22;6325;49.540;8.364;2023-04-29T10:55:56;17.20;99.90
12520;DHT22;6325;49.540;8.364;2023-04-29T10:58:37;17.20;99.90
12520;DHT22;6325;49.540;8.364;2023-04-29T11:01:05;17.20;99.90
12520;DHT22;6325;49.540;8.364;2023-04-29T11:03:47;17.70;99.90
12520;DHT22;6325;49.540;8.364;2023-04-29T11:06:15;17.60;99.90
12520;DHT22;6325;49.540;8.364;2023-04-29T11:08:44;17.70;99.90
12520;DHT22;6325;49.540;8.364;2023-04-29T11:11:13;16.60;99.90
12520;DHT22;6325;49.540;8.364;2023-04-29T11:13:45;16.50;99.90
12520;DHT22;6325;49.540;8.364;2023-04-29T11:16:12;17.20;99.90
12520;DHT22;6325;49.540;8.364;2023-04-29T11:19:03;16.70;99.90
12520;DHT22;6325;49.540;8.364;2023-04-29T11:21:30;16.60;99.90
12520;DHT22;6325;49.540;8.364;2023-04-29T11:23:59;16.30;99.90
12520;DHT22;6325;49.540;8.364;2023-04-29T11:26:28;15.70;99.90
12520;DHT22;6325;49.540;8.364;2023-04-29T11:28:56;16.20;99.90
12520;DHT22;6325;49.540;8.364;2023-04-29T11:31:25;15.60;99.90
12520;DHT22;6325;49.540;8.364;2023-04-29T11:33:54;16.00;99.90
12520;DHT22;6325;49.540;8.364;2023-04-29T11:36:21;15.80;99.90
12520;DHT22;6325;49.540;8.364;2023-04-29T11:38:48;15.70;99.90
12520;DHT22;6325;49.540;8.364;2023-04-29T11:41:15;15.70;99.90
12520;DHT22;6325;49.540;8.364;2023-04-29T11:43:46;15.60;99.90
12520;DHT22;6325;49.540;8.364;2023-04-29T11:46:13;16.10;99.90
12520;DHT22;6325;49.540;8.364;2023-04-29T11:48:45;15.90;99.90
12520;DHT22;6325;49.540;8.364;2023-04-29T11:51:13;15.90;99.90
12520;DHT22;6325;49.540;8.364;2023-04-29T11:53:43;16.60;99.90
12520;DHT22;6325;49.540;8.364;2023-04-29T11:56:10;16.40;99.90
12520;DHT22;6325;49.540;8.364;2023-04-29T11:58:37;16.20;99.90
12520;DHT22;6325;49.540;8.364;2023-04-29T12:01:06;16.90;99.90
12520;DHT22;6325;49.540;8.364;2023-04-29T12:03:33;16.60;99.90
12520;DHT22;6325;49.540;8.364;2023-04-29T12:06:01;16.10;99.90
12520;DHT22;6325;49.540;8.364;2023-04-29T12:08:29;16.40;99.90
12520;DHT22;6325;49.540;8.364;2023-04-29T12:10:58;15.90;99.90
12520;DHT22;6325;49.540;8.364;2023-04-29T12:13:27;16.50;99.90
12520;DHT22;6325;49.540;8.364;2023-04-29T12:15:55;16.50;99.90
12520;DHT22;6325;49.540;8.364;2023-04-29T12:18:24;16.80;99.90
12520;DHT22;6325;49.540;8.364;2023-04-29T12:20:52;16.60;99.90
12520;DHT22;6325;49.540;8.364;2023-04-29T12:23:22;15.90;99.90
12520;DHT22;6325;49.540;8.364;2023-04-29T12:25:50;16.30;99.90
12520;DHT22;6325;49.540;8.364;2023-04-29T12:28:18;16.50;99.90
12520;DHT22;6325;49.540;8.364;2023-04-29T12:30:45;16.50;99.90
12520;DHT22;6325;49.540;8.364;2023-04-29T12:33:17;16.20;99.90
12520;DHT22;6325;49.540;8.364;2023-04-29T12:35:46;16.70;99.90
12520;DHT22;6325;49.540;8.364;2023-04-29T12:38:15;16.10;99.90
12520;DHT22;6325;49.540;8.364;2023-04-29T12:40:43;16.10;99.90
12520;DHT22;6325;49.540;8.364;2023-04-29T12:43:10;16.10;99.90
12520;DHT22;6325;49.540;8.364;2023-04-29T12:45:48;16.10;99.90
12520;DHT22;6325;49.540;8.364;2023-04-29T12:48:22;16.50;99.90
12520;DHT22;6325;49.540;8.364;2023-04-29T12:50:59;16.60;99.90
12520;DHT22;6325;49.540;8.364;2023-04-29T12:53:26;16.20;99.90
12520;DHT22;6325;49.540;8.364;2023-04-29T12:55:54;16.50;99.90
12520;DHT22;6325;49.540;8.364;2023-04-29T12:58:21;16.60;99.90
12520;DHT22;6325;49.540;8.364;2023-04-29T13:00:48;17.10;99.90
12520;DHT22;6325;49.540;8.364;2023-04-29T13:03:15;16.50;99.90
12520;DHT22;6325;49.540;8.364;2023-04-29T13:05:42;17.20;99.90
12520;DHT22;6325;49.540;8.364;2023-04-29T13:08:10;16.80;99.90
12520;DHT22;6325;49.540;8.364;2023-04-29T13:10:37;16.70;99.90
12520;DHT22;6325;49.540;8.364;2023-04-29T13:13:04;17.10;99.90
12520;DHT22;6325;49.540;8.364;2023-04-29T13:15:34;16.70;99.90
12520;DHT22;6325;49.540;8.364;2023-04-29T13:18:00;16.80;99.90
12520;DHT22;6325;49.540;8.364;2023-04-29T13:20:27;16.90;99.90
12520;DHT22;6325;49.540;8.364;2023-04-29T13:22:54;17.00;99.90
12520;DHT22;6325;49.540;8.364;2023-04-29T13:25:22;16.60;99.90
12520;DHT22;6325;49.540;8.364;2023-04-29T13:27:49;17.00;99.90
12520;DHT22;6325;49.540;8.364;2023-04-29T13:30:16;16.90;99.90
12520;DHT22;6325;49.540;8.364;2023-04-29T13:32:43;17.10;99.90
12520;DHT22;6325;49.540;8.364;2023-04-29T13:35:10;17.10;99.90
12520;DHT22;6325;49.540;8.364;2023-04-29T13:37:37;17.00;99.90
12520;DHT22;6325;49.540;8.364;2023-04-29T13:40:06;17.00;99.90
12520;DHT22;6325;49.540;8.364;2023-04-29T13:42:34;16.70;99.90
12520;DHT22;6325;49.540;8.364;2023-04-29T13:45:01;16.80;99.90
12520;DHT22;6325;49.540;8.364;2023-04-29T13:47:28;16.70;99.90
12520;DHT22;6325;49.540;8.364;2023-04-29T13:49:55;16.90;99.90
12520;DHT22;6325;49.540;8.364;2023-04-29T13:52:22;16.80;99.90
12520;DHT22;6325;49.540;8.364;2023-04-29T13:54:48;16.50;99.90
12520;DHT22;6325;49.540;8.364;2023-04-29T13:57:15;17.00;99.90
12520;DHT22;6325;49.540;8.364;2023-04-29T13:59:45;16.70;99.90
12520;DHT22;6325;49.540;8.364;2023-04-29T14:02:12;16.60;99.90
12520;DHT22;6325;49.540;8.364;2023-04-29T14:04:39;16.80;99.90
12520;DHT22;6325;49.540;8.364;2023-04-29T14:07:06;17.40;99.90
12520;DHT22;6325;49.540;8.364;2023-04-29T14:09:32;17.40;99.90
12520;DHT22;6325;49.540;8.364;2023-04-29T14:11:59;18.20;99.90
12520;DHT22;6325;49.540;8.364;2023-04-29T14:14:26;18.30;99.90
12520;DHT22;6325;49.540;8.364;2023-04-29T14:16:54;18.10;99.90
12520;DHT22;6325;49.540;8.364;2023-04-29T14:19:21;19.10;99.90
12520;DHT22;6325;49.540;8.364;2023-04-29T14:21:47;19.00;99.90
12520;DHT22;6325;49.540;8.364;2023-04-29T14:24:14;20.20;99.90
12520;DHT22;6325;49.540;8.364;2023-04-29T14:26:41;20.20;99.90
12520;DHT22;6325;49.540;8.364;2023-04-29T14:29:08;20.50;99.90
12520;DHT22;6325;49.540;8.364;2023-04-29T14:31:35;19.80;99.90
12520;DHT22;6325;49.540;8.364;2023-04-29T14:34:04;20.10;99.90
12520;DHT22;6325;49.540;8.364;2023-04-29T14:36:31;20.10;99.90
12520;DHT22;6325;49.540;8.364;2023-04-29T14:38:58;20.40;99.90
12520;DHT22;6325;49.540;8.364;2023-04-29T14:41:26;21.20;99.90
12520;DHT22;6325;49.540;8.364;2023-04-29T14:43:52;21.00;99.90
12520;DHT22;6325;49.540;8.364;2023-04-29T14:46:19;20.90;99.90
12520;DHT22;6325;49.540;8.364;2023-04-29T14:48:46;20.50;99.90
12520;DHT22;6325;49.540;8.364;2023-04-29T14:51:15;20.00;99.90
12520;DHT22;6325;49.540;8.364;2023-04-29T14:53:41;19.20;99.90
12520;DHT22;6325;49.540;8.364;2023-04-29T14:56:08;18.90;99.90
12520;DHT22;6325;49.540;8.364;2023-04-29T14:58:35;18.60;99.90
12520;DHT22;6325;49.540;8.364;2023-04-29T15:01:02;18.70;99.90
12520;DHT22;6325;49.540;8.364;2023-04-29T15:03:29;18.30;99.90
12520;DHT22;6325;49.540;8.364;2023-04-29T15:05:56;18.20;99.90
12520;DHT22;6325;49.540;8.364;2023-04-29T15:08:24;17.80;99.90
12520;DHT22;6325;49.540;8.364;2023-04-29T15:10:51;17.70;99.90
12520;DHT22;6325;49.540;8.364;2023-04-29T15:13:18;17.80;99.90
12520;DHT22;6325;49.540;8.364;2023-04-29T15:15:44;17.10;99.90
12520;DHT22;6325;49.540;8.364;2023-04-29T15:18:11;17.70;99.90
12520;DHT22;6325;49.540;8.364;2023-04-29T15:20:38;17.50;99.90
12520;DHT22;6325;49.540;8.364;2023-04-29T15:23:05;17.10;99.90
12520;DHT22;6325;49.540;8.364;2023-04-29T15:25:34;17.50;99.90
12520;DHT22;6325;49.540;8.364;2023-04-29T15:28:02;16.80;99.90
12520;DHT22;6325;49.540;8.364;2023-04-29T15:30:30;17.30;99.90
12520;DHT22;6325;49.540;8.364;2023-04-29T15:32:56;16.60;99.90
12520;DHT22;6325;49.540;8.364;2023-04-29T15:35:24;16.70;99.90
12520;DHT22;6325;49.540;8.364;2023-04-29T15:37:52;16.00;99.90
12520;DHT22;6325;49.540;8.364;2023-04-29T15:40:18;16.30;99.90
12520;DHT22;6325;49.540;8.364;2023-04-29T15:42:46;16.30;99.90
12520;DHT22;6325;49.540;8.364;2023-04-29T15:45:13;16.40;99.90
12520;DHT22;6325;49.540;8.364;2023-04-29T15:47:41;16.40;99.90
12520;DHT22;6325;49.540;8.364;2023-04-29T15:50:08;16.40;99.90
12520;DHT22;6325;49.540;8.364;2023-04-29T15:52:35;16.10;99.90